Time;durP1;ratioP1;P1;durP2;ratioP2;P2;SDS_P1;SDS_P2;PMS_P1;PMS_P2;Temp;Humidity;BMP_temperature;BMP_pressure;BME280_temperature;BME280_humidity;BME280_pressure;Samples;Min_cycle;Max_cycle;Signal;HPM_P1;HPM_P2
2023/06/11 00:03:22;;;;;;;7.90;7.10;;;;;;;16.33;62.01;100135.25;218079;1257;139987;-76
2023/06/11 00:08:25;;;;;;;8.30;7.20;;;;;;;16.24;62.33;100141.12;217768;1257;140331;-75
2023/06/11 00:13:29;;;;;;;9.00;8.10;;;;;;;16.17;62.54;100147.30;218291;1257;140184;-74
2023/06/11 00:18:33;;;;;;;9.60;7.60;;;;;;;16.09;62.76;100146.65;218014;1259;140858;-74
2023/06/11 00:23:41;;;;;;;10.90;8.10;;;;;;;15.98;62.90;100153.19;218342;1257;139975;-76
2023/06/11 00:28:45;;;;;;;10.30;8.20;;;;;;;15.89;63.20;100153.41;218072;1260;139854;-77
2023/06/11 00:33:49;;;;;;;8.80;7.90;;;;;;;15.81;63.40;100149.39;218029;1257;140065;-72
2023/06/11 00:38:53;;;;;;;8.40;7.60;;;;;;;15.70;63.70;100152.91;217759;1259;140274;-73
2023/06/11 00:43:58;;;;;;;9.60;6.90;;;;;;;15.61;63.97;100156.45;217952;1257;141278;-73
2023/06/11 00:49:02;;;;;;;10.40;8.80;;;;;;;15.57;64.17;100158.19;218216;1256;139356;-74
2023/06/11 00:54:05;;;;;;;7.10;6.30;;;;;;;15.50;64.15;100164.19;217754;1256;140150;-73
2023/06/11 00:59:09;;;;;;;9.00;8.20;;;;;;;15.43;64.31;100168.95;217868;1256;140077;-76
2023/06/11 01:04:20;;;;;;;9.00;8.10;;;;;;;15.38;64.35;100167.92;218037;1259;140791;-76
2023/06/11 01:09:27;;;;;;;8.80;8.00;;;;;;;15.31;64.59;100167.77;219485;1257;139912;-76
2023/06/11 01:14:32;;;;;;;9.20;8.30;;;;;;;15.23;64.55;100168.89;218136;1256;140619;-75
2023/06/11 01:19:46;;;;;;;10.00;9.00;;;;;;;15.15;64.85;100173.38;218502;1257;139920;-72
2023/06/11 01:25:05;;;;;;;9.30;8.50;;;;;;;15.06;64.93;100174.57;218383;1256;140748;-73
2023/06/11 01:30:20;;;;;;;11.70;9.20;;;;;;;14.99;65.24;100182.17;218113;1259;139909;-73
2023/06/11 01:35:24;;;;;;;9.30;8.40;;;;;;;14.92;65.19;100186.79;219287;1258;142111;-76
2023/06/11 01:40:28;;;;;;;10.00;8.90;;;;;;;14.85;65.49;100186.92;218643;1256;140045;-76
2023/06/11 01:45:33;;;;;;;9.90;9.00;;;;;;;14.79;65.64;100187.00;219076;1257;140374;-77
2023/06/11 01:50:37;;;;;;;9.70;8.50;;;;;;;14.73;65.86;100191.44;218115;1257;139570;-79
2023/06/11 01:55:42;;;;;;;10.20;9.20;;;;;;;14.67;65.76;100196.52;218438;1256;139797;-79
2023/06/11 02:00:47;;;;;;;12.80;9.60;;;;;;;14.60;65.79;100188.89;219482;1256;140685;-76
2023/06/11 02:05:51;;;;;;;11.30;8.90;;;;;;;14.54;65.90;100192.73;218334;1257;141796;-75
2023/06/11 02:10:56;;;;;;;13.40;10.50;;;;;;;14.48;66.32;100192.43;217816;1257;140450;-75
2023/06/11 02:15:59;;;;;;;11.80;9.30;;;;;;;14.40;66.46;100196.27;218065;1259;140498;-75
2023/06/11 02:21:03;;;;;;;10.40;9.40;;;;;;;14.34;66.40;100200.33;218091;1257;230578;-81
2023/06/11 02:26:07;;;;;;;12.00;9.30;;;;;;;14.26;66.82;100205.26;218143;1259;140429;-79
2023/06/11 02:31:11;;;;;;;9.80;8.90;;;;;;;14.18;67.12;100208.90;218317;1257;140185;-80
2023/06/11 02:36:15;;;;;;;11.10;9.90;;;;;;;14.11;67.16;100212.86;217906;1257;140781;-81
2023/06/11 02:41:18;;;;;;;12.80;10.90;;;;;;;14.06;67.22;100218.10;218531;1257;140611;-74
2023/06/11 02:46:22;;;;;;;11.20;10.10;;;;;;;13.99;67.44;100218.93;217975;1257;140706;-78
2023/06/11 02:51:25;;;;;;;11.40;10.20;;;;;;;13.94;67.83;100222.16;217876;1256;140298;-71
2023/06/11 02:56:29;;;;;;;11.30;10.20;;;;;;;13.88;67.83;100226.18;217951;1256;141088;-74
2023/06/11 03:01:32;;;;;;;13.10;10.70;;;;;;;13.87;68.23;100230.52;218800;1257;140479;-76
2023/06/11 03:06:36;;;;;;;11.10;10.00;;;;;;;13.87;68.37;100235.92;219205;1256;141623;-75
2023/06/11 03:11:39;;;;;;;12.70;9.30;;;;;;;13.87;68.46;100237.96;218676;1260;140642;-72
2023/06/11 03:16:42;;;;;;;9.20;8.00;;;;;;;13.92;68.49;100241.16;218146;1260;140279;-72
2023/06/11 03:21:46;;;;;;;9.20;8.00;;;;;;;13.97;68.55;100243.88;218417;1259;140180;-77
2023/06/11 03:26:49;;;;;;;8.10;7.30;;;;;;;14.05;68.48;100245.11;219078;1257;140526;-78
2023/06/11 03:31:53;;;;;;;15.10;7.80;;;;;;;14.16;68.25;100251.55;218463;1257;140089;-80
2023/06/11 03:36:57;;;;;;;14.60;8.40;;;;;;;14.25;67.90;100252.45;217957;1262;139805;-73
2023/06/11 03:42:02;;;;;;;9.40;8.40;;;;;;;14.47;67.79;100258.20;218457;1257;163121;-74
2023/06/11 03:47:04;;;;;;;8.50;7.60;;;;;;;14.76;67.21;100268.14;217784;1259;140664;-72
2023/06/11 03:52:08;;;;;;;7.50;6.90;;;;;;;14.91;66.97;100272.29;218024;1260;140018;-76
2023/06/11 03:57:12;;;;;;;11.60;8.10;;;;;;;15.08;66.44;100272.38;217881;1260;140794;-72
2023/06/11 04:02:15;;;;;;;12.30;7.10;;;;;;;15.35;66.22;100275.63;218470;1260;140550;-73
2023/06/11 04:07:19;;;;;;;8.00;7.00;;;;;;;15.51;65.70;100281.98;217846;1260;140066;-72
2023/06/11 04:12:22;;;;;;;15.00;7.80;;;;;;;15.70;65.30;100285.63;217895;1256;140681;-73
2023/06/11 04:17:26;;;;;;;8.10;7.10;;;;;;;15.93;64.92;100287.83;217683;1257;140500;-69
2023/06/11 04:22:30;;;;;;;10.60;7.30;;;;;;;16.32;64.09;100294.02;218036;1260;140264;-79
2023/06/11 04:27:33;;;;;;;7.80;6.80;;;;;;;16.55;63.47;100298.65;217704;1260;141493;-72
2023/06/11 04:32:40;;;;;;;7.70;6.80;;;;;;;17.34;62.74;100296.79;218492;1260;140605;-75
2023/06/11 04:37:43;;;;;;;;;;;;;;;17.69;61.61;100296.16;218088;1260;140478;-76
2023/06/11 04:42:48;;;;;;;7.70;6.30;;;;;;;19.42;59.82;100294.02;218060;1260;127673;-71
2023/06/11 04:47:51;;;;;;;7.80;6.70;;;;;;;20.27;58.36;100298.57;217973;1258;140883;-77
2023/06/11 04:52:56;;;;;;;8.40;7.00;;;;;;;20.68;57.12;100303.27;218398;1260;139938;-75
2023/06/11 04:58:00;;;;;;;9.10;6.60;;;;;;;21.18;55.76;100304.31;218482;1257;139781;-76
2023/06/11 05:03:04;;;;;;;9.20;6.70;;;;;;;21.42;54.31;100307.58;217895;1260;140035;-81
2023/06/11 05:08:08;;;;;;;6.40;5.80;;;;;;;21.51;53.62;100308.13;218778;1260;139757;-83
2023/06/11 05:13:12;;;;;;;7.20;6.40;;;;;;;22.25;52.56;100311.80;218413;1260;139504;-79
2023/06/11 05:18:16;;;;;;;8.10;6.50;;;;;;;22.76;51.28;100317.23;218881;1260;139894;-77
2023/06/11 05:23:28;;;;;;;7.30;6.10;;;;;;;24.03;49.41;100320.34;218872;1259;139817;-75
2023/06/11 05:28:34;;;;;;;6.00;5.40;;;;;;;24.94;47.47;100326.05;218719;1260;138989;-70
2023/06/11 05:33:38;;;;;;;6.50;5.80;;;;;;;26.01;45.63;100327.52;219988;1259;139225;-69
2023/06/11 05:38:42;;;;;;;10.40;4.90;;;;;;;28.18;43.48;100329.40;217740;1257;140345;-69
2023/06/11 05:43:45;;;;;;;5.90;5.40;;;;;;;30.47;40.69;100336.02;218010;1260;139900;-72
2023/06/11 05:48:49;;;;;;;7.70;5.10;;;;;;;32.15;38.15;100341.98;217937;1260;139430;-67
2023/06/11 05:53:52;;;;;;;4.80;3.80;;;;;;;34.03;35.63;100346.95;217796;1260;140272;-69
2023/06/11 05:58:55;;;;;;;3.90;3.50;;;;;;;35.83;33.35;100347.77;217742;1261;139685;-68
2023/06/11 06:03:59;;;;;;;;;;;;;;;37.53;31.23;100354.89;218145;1258;139518;-70
2023/06/11 06:09:02;;;;;;;4.10;3.30;;;;;;;38.65;29.05;100361.73;218266;1257;126343;-68
2023/06/11 06:14:06;;;;;;;4.90;3.20;;;;;;;39.57;27.74;100365.10;218282;1256;140427;-67
2023/06/11 06:19:09;;;;;;;2.90;2.70;;;;;;;40.08;26.23;100362.79;217949;1260;139320;-67
2023/06/11 06:24:13;;;;;;;6.30;3.00;;;;;;;40.49;25.04;100368.04;217683;1259;141304;-67
2023/06/11 06:29:17;;;;;;;3.90;3.50;;;;;;;40.99;24.40;100370.00;218157;1260;138947;-67
2023/06/11 06:34:21;;;;;;;3.70;3.10;;;;;;;41.32;23.66;100372.85;217569;1257;221244;-70
2023/06/11 06:39:24;;;;;;;7.40;3.00;;;;;;;41.39;23.01;100373.67;217606;1257;139833;-69
2023/06/11 06:44:26;;;;;;;4.20;3.10;;;;;;;41.23;22.53;100369.43;218250;1257;140598;-69
2023/06/11 06:49:35;;;;;;;3.50;3.00;;;;;;;40.83;22.02;100367.27;218806;1256;139091;-69
2023/06/11 06:54:43;;;;;;;3.20;2.90;;;;;;;40.91;22.13;100369.85;218082;1257;139142;-70
2023/06/11 06:59:49;;;;;;;5.40;3.80;;;;;;;41.08;21.75;100365.45;218571;1257;139400;-75
2023/06/11 07:04:53;;;;;;;8.30;3.30;;;;;;;41.29;21.40;100369.15;220304;1257;140646;-75
2023/06/11 07:09:57;;;;;;;4.00;2.50;;;;;;;41.16;21.16;100369.23;217884;1258;139451;-71
2023/06/11 07:15:00;;;;;;;2.20;2.00;;;;;;;40.82;21.02;100372.21;217516;1258;139205;-71
2023/06/11 07:20:05;;;;;;;5.30;3.10;;;;;;;40.76;21.24;100371.75;217698;1257;139704;-72
2023/06/11 07:25:09;;;;;;;4.40;3.20;;;;;;;40.25;21.28;100380.09;217149;1260;764427;-75
2023/06/11 07:30:12;;;;;;;3.10;2.90;;;;;;;39.19;21.38;100379.66;217466;1257;139233;-74
2023/06/11 07:35:17;;;;;;;2.50;2.30;;;;;;;37.78;21.82;100377.30;218310;1257;140652;-70
2023/06/11 07:40:20;;;;;;;5.80;3.20;;;;;;;36.51;22.47;100375.52;217728;1256;139459;-73
2023/06/11 07:45:23;;;;;;;3.40;3.10;;;;;;;35.62;23.42;100375.20;217581;1258;139356;-70
2023/06/11 07:50:27;;;;;;;8.00;2.70;;;;;;;34.51;23.51;100371.63;217896;1256;141221;-68
2023/06/11 07:55:30;;;;;;;5.60;3.50;;;;;;;32.83;24.15;100375.13;218844;1257;139411;-68
2023/06/11 08:00:33;;;;;;;9.50;3.20;;;;;;;32.23;25.09;100364.89;217544;1257;139885;-69
2023/06/11 08:05:36;;;;;;;4.80;3.30;;;;;;;32.03;25.26;100365.20;218064;1257;139063;-67
2023/06/11 08:10:38;;;;;;;11.80;3.70;;;;;;;31.73;25.02;100356.28;217872;1257;139789;-70
2023/06/11 08:15:41;;;;;;;7.00;3.10;;;;;;;31.47;24.81;100353.44;218003;1257;140654;-75
2023/06/11 08:20:43;;;;;;;5.00;2.40;;;;;;;30.79;24.51;100351.58;217950;1256;141767;-66
2023/06/11 08:25:46;;;;;;;7.50;3.10;;;;;;;30.19;24.71;100348.48;218283;1257;140613;-75
2023/06/11 08:30:48;;;;;;;9.80;3.10;;;;;;;29.58;25.03;100346.42;217568;1260;139265;-68
2023/06/11 08:35:53;;;;;;;4.40;3.00;;;;;;;29.36;25.46;100348.40;217350;1260;229376;-66
2023/06/11 08:40:56;;;;;;;;;;;;;;;29.19;25.39;100337.06;218186;1257;140266;-69
2023/06/11 08:45:58;;;;;;;3.00;2.80;;;;;;;28.97;25.55;100334.34;217934;1257;125609;-67
2023/06/11 08:51:10;;;;;;;6.50;2.00;;;;;;;28.71;25.02;100331.17;219151;1256;139025;-70
2023/06/11 08:56:23;;;;;;;10.20;3.20;;;;;;;28.46;25.26;100330.02;217810;1257;140681;-67
2023/06/11 09:01:28;;;;;;;3.10;2.00;;;;;;;28.47;25.46;100327.68;218841;1256;139955;-68
2023/06/11 09:06:33;;;;;;;2.60;2.40;;;;;;;27.98;25.25;100329.70;219319;1257;140092;-68
2023/06/11 09:11:38;;;;;;;5.10;2.50;;;;;;;27.60;25.26;100331.37;218306;1259;139214;-69
2023/06/11 09:16:45;;;;;;;2.80;2.50;;;;;;;27.34;25.45;100332.54;219831;1257;138786;-68
2023/06/11 09:21:56;;;;;;;9.40;2.80;;;;;;;27.03;25.72;100334.14;217928;1257;139215;-69
2023/06/11 09:26:59;;;;;;;2.50;2.30;;;;;;;27.08;25.90;100327.98;218697;1256;139531;-66
2023/06/11 09:32:07;;;;;;;4.70;2.10;;;;;;;27.00;25.95;100321.43;217697;1256;139215;-66
2023/06/11 09:37:30;;;;;;;2.80;2.30;;;;;;;27.21;25.91;100325.52;218803;1256;139639;-70
2023/06/11 09:42:37;;;;;;;4.00;2.70;;;;;;;27.21;25.49;100322.48;217759;1256;139618;-67
2023/06/11 09:47:41;;;;;;;3.00;2.10;;;;;;;27.27;25.40;100311.91;218079;1257;139317;-68
2023/06/11 09:53:04;;;;;;;5.70;2.20;;;;;;;27.32;25.33;100317.92;218348;1256;139459;-70
2023/06/11 09:58:35;;;;;;;6.10;2.30;;;;;;;27.22;25.15;100313.16;217926;1257;139896;-69
2023/06/11 10:03:40;;;;;;;2.80;1.90;;;;;;;27.07;25.24;100302.63;218623;1256;139576;-69
2023/06/11 10:08:48;;;;;;;5.30;2.20;;;;;;;26.76;24.55;100305.34;217632;1260;141619;-70
2023/06/11 10:13:59;;;;;;;6.10;2.50;;;;;;;26.63;24.95;100306.93;218218;1257;139310;-69
2023/06/11 10:19:10;;;;;;;2.20;2.10;;;;;;;26.86;25.10;100305.69;217726;1260;139546;-71
2023/06/11 10:24:25;;;;;;;4.40;1.90;;;;;;;27.06;24.83;100308.95;218427;1260;140712;-71
2023/06/11 10:29:27;;;;;;;2.40;1.70;;;;;;;27.18;24.64;100305.89;218141;1257;139790;-68
2023/06/11 10:34:40;;;;;;;1.60;1.50;;;;;;;27.33;24.60;100309.26;218846;1257;140230;-70
2023/06/11 10:39:50;;;;;;;6.60;2.00;;;;;;;27.19;24.13;100314.38;218021;1257;139269;-70
2023/06/11 10:45:00;;;;;;;3.70;1.90;;;;;;;27.08;24.28;100301.83;218330;1257;139236;-71
2023/06/11 10:50:16;;;;;;;3.10;1.80;;;;;;;26.84;24.12;100298.35;218475;1257;140475;-70
2023/06/11 10:55:23;;;;;;;2.10;1.80;;;;;;;26.75;23.92;100289.45;219484;1256;139094;-71
2023/06/11 11:00:32;;;;;;;1.60;1.40;;;;;;;26.67;23.53;100293.86;218400;1259;139023;-72
2023/06/11 11:05:43;;;;;;;2.80;1.50;;;;;;;26.55;23.31;100291.34;219881;1256;140424;-70
2023/06/11 11:10:45;;;;;;;7.40;2.00;;;;;;;26.49;23.45;100294.55;218621;1257;141244;-72
2023/06/11 11:15:50;;;;;;;1.60;1.50;;;;;;;26.65;23.53;100295.73;218418;1257;140447;-68
2023/06/11 11:20:57;;;;;;;9.00;1.50;;;;;;;26.70;23.24;100290.55;219745;1257;140319;-68
2023/06/11 11:26:03;;;;;;;6.90;1.80;;;;;;;26.78;22.96;100288.41;218322;1256;139276;-66
2023/06/11 11:31:07;;;;;;;1.50;1.40;;;;;;;26.94;23.23;100282.95;217778;1256;139607;-67
2023/06/11 11:36:12;;;;;;;7.90;2.20;;;;;;;27.05;23.30;100281.77;218879;1256;139648;-67
2023/06/11 11:41:22;;;;;;;5.20;1.80;;;;;;;26.95;22.68;100285.03;217872;1259;139174;-67
2023/06/11 11:46:31;;;;;;;2.20;1.90;;;;;;;26.94;22.74;100283.17;219150;1256;140321;-67
2023/06/11 11:51:41;;;;;;;3.10;1.50;;;;;;;26.91;22.87;100279.22;218338;1257;139996;-68
2023/06/11 11:56:45;;;;;;;4.50;1.70;;;;;;;26.79;23.10;100274.85;218672;1257;140804;-67
2023/06/11 12:02:00;;;;;;;2.90;1.70;;;;;;;26.56;23.28;100282.18;218430;1256;141615;-66
2023/06/11 12:07:12;;;;;;;2.10;1.30;;;;;;;26.62;23.67;100283.03;217657;1256;140410;-67
2023/06/11 12:12:16;;;;;;;1.80;1.70;;;;;;;26.68;23.53;100279.31;218276;1256;141273;-67
2023/06/11 12:17:30;;;;;;;8.20;1.60;;;;;;;26.56;23.12;100270.08;217615;1259;139368;-67
2023/06/11 12:22:38;;;;;;;2.80;1.90;;;;;;;26.30;23.01;100262.89;217664;1256;140114;-66
2023/06/11 12:27:45;;;;;;;2.20;2.00;;;;;;;26.17;23.23;100265.91;218128;1258;140795;-66
2023/06/11 12:32:56;;;;;;;2.40;1.40;;;;;;;26.23;23.26;100265.55;218033;1256;139920;-66
2023/06/11 12:38:02;;;;;;;2.00;1.80;;;;;;;26.16;23.24;100264.52;218550;1257;139584;-65
2023/06/11 12:43:07;;;;;;;2.00;1.80;;;;;;;26.17;23.45;100270.86;217868;1257;140202;-69
2023/06/11 12:48:11;;;;;;;2.40;1.70;;;;;;;26.27;23.51;100254.18;218055;1260;139385;-66
2023/06/11 12:53:16;;;;;;;2.00;1.70;;;;;;;26.37;23.96;100248.89;218714;1256;141585;-65
2023/06/11 12:58:20;;;;;;;2.50;2.20;;;;;;;26.32;23.75;100263.76;218173;1256;139293;-67
2023/06/11 13:03:24;;;;;;;1.90;1.50;;;;;;;26.36;23.55;100258.95;220490;1256;140459;-72
2023/06/11 13:08:31;;;;;;;1.70;1.50;;;;;;;26.31;23.06;100258.08;219985;1256;140386;-71
2023/06/11 13:13:37;;;;;;;5.40;2.00;;;;;;;26.31;23.24;100250.29;218282;1256;140157;-66
2023/06/11 13:18:49;;;;;;;2.20;1.80;;;;;;;26.36;23.30;100248.92;218268;1259;140336;-70
2023/06/11 13:23:57;;;;;;;1.90;1.80;;;;;;;26.27;23.42;100245.60;217926;1259;140334;-70
2023/06/11 13:29:09;;;;;;;4.00;2.30;;;;;;;26.11;23.71;100248.17;218103;1256;139821;-72
2023/06/11 13:34:16;;;;;;;5.20;2.30;;;;;;;26.01;24.15;100247.66;218681;1257;139622;-70
2023/06/11 13:39:23;;;;;;;2.10;2.00;;;;;;;25.97;24.24;100243.77;217568;1256;140168;-72
2023/06/11 13:44:43;;;;;;;4.30;1.70;;;;;;;25.81;23.96;100250.62;217827;1257;140237;-70
2023/06/11 13:49:46;;;;;;;3.90;1.90;;;;;;;25.86;24.26;100245.92;218575;1255;139702;-67
2023/06/11 14:09:12;;;;;;;4.00;2.30;;;;;;;25.69;24.94;100241.84;214661;1291;683972;-67
2023/06/11 14:14:16;;;;;;;3.80;2.30;;;;;;;25.64;24.89;100236.16;217360;1260;138091;-73
2023/06/11 14:19:20;;;;;;;2.00;1.90;;;;;;;25.47;24.77;100237.55;216757;1256;1498530;-75
2023/06/11 14:24:24;;;;;;;5.20;2.00;;;;;;;25.28;24.96;100241.22;218507;1255;140237;-68
2023/06/11 14:29:27;;;;;;;9.20;2.20;;;;;;;25.35;25.14;100237.51;218902;1256;139013;-69
2023/06/11 14:34:30;;;;;;;3.50;2.90;;;;;;;25.34;25.11;100246.92;219127;1256;140354;-66
2023/06/11 14:39:33;;;;;;;4.00;2.40;;;;;;;25.28;25.41;100243.85;217901;1256;138172;-70
2023/06/11 14:44:36;;;;;;;2.30;2.00;;;;;;;25.38;25.50;100237.61;219379;1257;138675;-72
2023/06/11 14:49:40;;;;;;;3.90;2.40;;;;;;;25.45;25.73;100225.86;218176;1259;139410;-66
2023/06/11 14:54:43;;;;;;;2.30;2.20;;;;;;;25.44;25.78;100229.00;219617;1256;139780;-68
2023/06/11 14:59:46;;;;;;;2.20;2.00;;;;;;;25.37;25.69;100229.88;220418;1256;139687;-69
2023/06/11 15:04:48;;;;;;;3.60;2.40;;;;;;;25.38;25.79;100225.19;220377;1256;139431;-66
2023/06/11 15:09:52;;;;;;;7.10;2.70;;;;;;;25.36;25.51;100207.60;220293;1256;138991;-67
2023/06/11 15:14:59;;;;;;;;;;;;;;;25.30;25.72;100213.61;219938;1255;139569;-72
2023/06/11 15:20:05;;;;;;;3.20;2.30;;;;;;;25.21;25.68;100214.86;221032;1256;125467;-72
2023/06/11 15:25:11;;;;;;;3.40;3.10;;;;;;;25.16;25.83;100212.44;219881;1256;140464;-67
2023/06/11 15:30:14;;;;;;;6.50;2.30;;;;;;;25.09;25.98;100214.16;220156;1256;139289;-70
2023/06/11 15:35:17;;;;;;;5.00;3.40;;;;;;;25.08;26.22;100216.06;218983;1256;139035;-68
2023/06/11 15:40:24;;;;;;;6.40;3.20;;;;;;;25.07;26.01;100211.65;217692;1257;140303;-68
2023/06/11 15:45:28;;;;;;;3.30;3.00;;;;;;;25.03;26.27;100209.40;218513;1256;138361;-74
2023/06/11 15:50:32;;;;;;;2.90;2.60;;;;;;;24.93;26.29;100206.31;218343;1256;140417;-75
2023/06/11 15:55:40;;;;;;;3.20;2.90;;;;;;;24.85;26.54;100207.89;218157;1260;139846;-69
2023/06/11 16:00:45;;;;;;;9.30;2.80;;;;;;;24.81;26.86;100208.23;218609;1259;139742;-76
2023/06/11 16:05:49;;;;;;;3.70;2.60;;;;;;;24.80;26.95;100207.00;218799;1260;139718;-66
2023/06/11 16:10:56;;;;;;;3.70;3.10;;;;;;;24.72;26.59;100213.10;217913;1257;139832;-69
2023/06/11 16:16:03;;;;;;;9.00;3.30;;;;;;;24.61;26.58;100215.14;218202;1257;139895;-70
2023/06/11 16:21:09;;;;;;;2.70;2.50;;;;;;;24.53;26.74;100209.21;218580;1256;140328;-72
2023/06/11 16:26:12;;;;;;;18.40;4.60;;;;;;;24.52;27.12;100202.16;218103;1257;138895;-71
2023/06/11 16:31:15;;;;;;;4.30;2.90;;;;;;;24.52;27.57;100201.00;218862;1256;139145;-72
2023/06/11 16:36:19;;;;;;;3.90;3.50;;;;;;;24.48;27.47;100198.70;217723;1257;139010;-69
2023/06/11 16:41:25;;;;;;;4.40;3.50;;;;;;;24.46;27.51;100206.02;217652;1257;139434;-69
2023/06/11 16:46:30;;;;;;;5.20;3.20;;;;;;;24.36;28.02;100205.99;218073;1261;138435;-69
2023/06/11 16:51:35;;;;;;;6.40;3.60;;;;;;;24.09;28.14;100209.70;219945;1259;138829;-68
2023/06/11 16:56:44;;;;;;;10.00;4.10;;;;;;;23.73;34.62;100214.14;218865;1256;140261;-69
2023/06/11 17:01:49;;;;;;;6.50;3.70;;;;;;;21.68;63.23;100215.81;217695;1260;139553;-70
2023/06/11 17:06:55;;;;;;;4.90;4.50;;;;;;;20.13;69.12;100218.95;217787;1257;138925;-69
2023/06/11 17:12:03;;;;;;;6.00;4.10;;;;;;;19.32;73.14;100216.85;219156;1256;140505;-65
2023/06/11 17:17:14;;;;;;;5.40;4.10;;;;;;;18.85;75.71;100216.68;220291;1256;140150;-67
2023/06/11 17:22:18;;;;;;;5.50;2.80;;;;;;;18.48;77.78;100224.80;219109;1257;140092;-67
2023/06/11 17:27:24;;;;;;;15.50;4.20;;;;;;;18.17;78.12;100224.77;218710;1256;139445;-82
2023/06/11 17:32:45;;;;;;;4.10;3.70;;;;;;;17.88;78.88;100231.66;217849;1256;140048;-68
2023/06/11 17:40:27;;;;;;;3.60;3.20;;;;;;;17.81;79.11;100232.67;216070;1289;686216;-77
2023/06/11 17:45:37;;;;;;;5.80;3.80;;;;;;;17.72;80.00;100236.78;216886;1269;139404;-76
2023/06/11 17:50:48;;;;;;;4.60;3.50;;;;;;;17.55;79.61;100235.88;216179;1266;1159216;-77
2023/06/11 17:55:54;;;;;;;8.20;3.90;;;;;;;17.58;81.31;100234.59;216767;1267;140117;-75
2023/06/11 18:01:01;;;;;;;4.50;3.20;;;;;;;17.64;82.29;100231.81;216951;1268;138826;-77
2023/06/11 18:06:06;;;;;;;3.70;3.40;;;;;;;17.69;83.12;100235.23;217236;1269;139276;-69
2023/06/11 18:11:19;;;;;;;4.50;3.20;;;;;;;17.73;83.90;100233.81;217345;1266;139886;-66
2023/06/11 18:16:24;;;;;;;4.30;3.10;;;;;;;17.68;83.75;100234.40;217619;1267;140265;-70
2023/06/11 18:21:29;;;;;;;3.30;3.00;;;;;;;17.54;83.38;100235.27;219704;1262;140343;-69
2023/06/11 18:26:39;;;;;;;7.90;3.80;;;;;;;17.46;83.99;100240.61;218148;1257;140305;-71
2023/06/11 18:31:43;;;;;;;6.00;4.60;;;;;;;17.24;82.90;100239.98;218341;1256;140664;-80
2023/06/11 18:36:47;;;;;;;21.30;4.90;;;;;;;17.07;83.44;100240.54;217734;1258;140615;-68
2023/06/11 18:41:56;;;;;;;6.70;3.90;;;;;;;16.95;84.38;100245.61;218532;1256;140282;-76
2023/06/11 18:47:00;;;;;;;16.90;3.50;;;;;;;16.87;84.91;100247.89;218095;1259;140913;-73
2023/06/11 18:52:12;;;;;;;10.10;4.50;;;;;;;16.74;85.24;100256.30;219443;1255;139268;-79
2023/06/11 18:57:26;;;;;;;5.10;4.60;;;;;;;16.59;84.97;100258.56;217913;1256;139606;-80
2023/06/11 19:02:31;;;;;;;;;;;;;;;16.43;85.21;100262.79;218736;1256;139618;-75
2023/06/11 19:07:40;;;;;;;9.00;3.90;;;;;;;16.25;85.81;100268.09;217976;1256;126698;-79
2023/06/11 19:12:45;;;;;;;9.00;4.00;;;;;;;16.13;85.97;100270.18;217817;1256;139932;-78
2023/06/11 19:17:50;;;;;;;5.40;4.10;;;;;;;15.96;86.05;100269.17;217892;1256;139094;-80
2023/06/11 19:23:05;;;;;;;5.70;4.90;;;;;;;15.80;86.87;100267.39;217823;1259;139546;-80
2023/06/11 19:28:14;;;;;;;13.40;4.80;;;;;;;15.68;87.41;100271.14;218305;1256;140076;-82
2023/06/11 19:33:26;;;;;;;7.30;4.50;;;;;;;15.57;88.20;100274.41;217708;1256;140263;-79
2023/06/11 19:38:36;;;;;;;14.90;5.30;;;;;;;15.43;88.36;100283.23;218029;1256;140833;-72
2023/06/11 19:43:42;;;;;;;6.40;4.60;;;;;;;15.28;88.64;100284.31;219308;1255;139884;-70
2023/06/11 19:48:52;;;;;;;9.80;4.80;;;;;;;15.13;88.70;100287.80;218330;1257;141543;-72
2023/06/11 19:53:59;;;;;;;7.30;4.20;;;;;;;14.97;89.04;100295.62;218623;1256;140337;-74
2023/06/11 19:59:15;;;;;;;5.00;3.80;;;;;;;14.89;90.48;100299.02;218623;1256;141108;-75
2023/06/11 20:04:23;;;;;;;5.10;4.20;;;;;;;14.85;90.60;100307.86;218303;1256;140238;-74
2023/06/11 20:09:32;;;;;;;10.50;3.50;;;;;;;14.83;89.67;100305.25;218353;1256;142154;-78
2023/06/11 20:14:42;;;;;;;5.20;4.70;;;;;;;14.79;89.06;100305.30;218921;1256;139580;-75
2023/06/11 20:19:51;;;;;;;4.60;4.10;;;;;;;14.76;88.68;100307.84;219583;1256;140345;-77
2023/06/11 20:24:58;;;;;;;9.10;4.10;;;;;;;14.71;88.37;100312.98;219158;1256;139792;-78
2023/06/11 20:30:03;;;;;;;10.50;4.40;;;;;;;14.67;88.26;100319.70;218496;1254;140000;-71
2023/06/11 20:35:08;;;;;;;14.70;4.50;;;;;;;14.65;88.47;100324.94;218423;1258;140656;-70
2023/06/11 20:40:13;;;;;;;3.90;3.40;;;;;;;14.62;88.52;100327.08;217885;1259;141326;-70
2023/06/11 20:45:25;;;;;;;7.50;4.80;;;;;;;14.53;88.08;100325.77;219027;1256;140878;-75
2023/06/11 20:50:35;;;;;;;9.20;5.00;;;;;;;14.44;88.25;100329.45;218231;1254;140388;-70
2023/06/11 20:55:39;;;;;;;13.20;5.40;;;;;;;14.39;88.62;100328.54;218266;1256;160111;-70
2023/06/11 21:00:43;;;;;;;5.50;5.00;;;;;;;14.35;88.94;100330.73;217931;1256;140978;-68
2023/06/11 21:05:52;;;;;;;6.80;5.00;;;;;;;14.30;89.05;100332.38;218286;1256;139613;-68
2023/06/11 21:10:57;;;;;;;5.80;5.20;;;;;;;14.25;89.32;100336.20;217794;1256;140848;-68
2023/06/11 21:16:04;;;;;;;14.10;5.10;;;;;;;14.23;89.65;100340.90;217767;1256;139798;-67
2023/06/11 21:21:07;;;;;;;5.90;4.90;;;;;;;14.20;89.82;100338.38;218161;1256;139616;-67
2023/06/11 21:26:12;;;;;;;6.20;5.60;;;;;;;14.17;90.13;100341.17;218082;1254;140793;-69
2023/06/11 21:31:16;;;;;;;6.00;4.40;;;;;;;14.09;89.59;100345.53;217669;1260;140466;-66
2023/06/11 21:36:22;;;;;;;5.10;4.50;;;;;;;14.04;90.32;100349.42;218167;1256;140265;-74
2023/06/11 21:41:31;;;;;;;6.00;5.20;;;;;;;13.97;90.37;100348.30;218231;1256;140378;-71
2023/06/11 21:46:36;;;;;;;6.20;5.60;;;;;;;13.88;90.08;100352.14;219001;1259;139504;-71
2023/06/11 21:51:44;;;;;;;4.90;4.50;;;;;;;13.79;90.21;100350.02;217801;1260;141103;-71
2023/06/11 21:56:53;;;;;;;5.20;4.70;;;;;;;13.75;90.81;100350.48;218812;1260;142542;-76
2023/06/11 22:02:03;;;;;;;5.50;5.00;;;;;;;13.76;91.10;100352.00;220328;1256;222234;-68
2023/06/11 22:07:07;;;;;;;6.50;4.50;;;;;;;13.76;91.19;100351.73;220379;1256;141124;-75
2023/06/11 22:12:11;;;;;;;9.70;4.90;;;;;;;13.79;91.29;100355.08;217841;1256;140879;-74
2023/06/11 22:17:14;;;;;;;6.40;4.60;;;;;;;13.81;91.68;100358.25;219747;1259;141503;-76
2023/06/11 22:22:16;;;;;;;6.00;4.70;;;;;;;13.82;91.78;100357.20;219073;1256;139265;-73
2023/06/11 22:27:21;;;;;;;5.00;4.50;;;;;;;13.82;91.92;100361.95;218314;1256;140180;-72
2023/06/11 22:32:28;;;;;;;6.60;5.70;;;;;;;13.77;92.01;100360.12;218157;1257;140649;-72
2023/06/11 22:37:33;;;;;;;4.60;4.10;;;;;;;13.73;92.60;100360.20;218811;1257;140231;-71
2023/06/11 22:42:36;;;;;;;7.30;4.40;;;;;;;13.64;92.53;100359.77;218567;1259;142228;-71
2023/06/11 22:47:42;;;;;;;8.90;4.90;;;;;;;13.49;91.95;100359.09;218632;1256;140238;-71
2023/06/11 22:52:49;;;;;;;7.60;4.90;;;;;;;13.31;92.65;100363.09;219431;1256;140343;-70
2023/06/11 22:57:52;;;;;;;4.60;4.10;;;;;;;13.17;92.62;100372.09;218386;1260;140313;-75
2023/06/11 23:02:56;;;;;;;7.40;5.20;;;;;;;13.08;93.28;100373.65;217997;1256;140874;-68
2023/06/11 23:07:59;;;;;;;5.40;4.80;;;;;;;13.05;93.84;100376.55;217858;1256;139727;-70
2023/06/11 23:13:03;;;;;;;4.90;4.20;;;;;;;12.97;93.72;100375.50;218364;1254;140322;-72
2023/06/11 23:18:09;;;;;;;7.90;4.30;;;;;;;12.86;93.98;100369.42;217845;1255;139873;-76
2023/06/11 23:23:15;;;;;;;8.00;5.20;;;;;;;12.70;93.77;100365.66;218017;1257;139537;-76
2023/06/11 23:28:22;;;;;;;5.60;5.00;;;;;;;12.57;93.83;100364.11;218010;1256;139869;-85